Terminal Aerodrome Forecast
Issued by NWS Atlanta, GA

Home | Current Version | Previous Version | Text Only | Print | Product List | Glossary On
Versions: 1 2 3 4 5 6 7 8 9 10 11 12 13 14 15 16 17 18 19 20 21 22 23 24 25 26 27 28 29 30 31 32 33 34 35 36 37 38 39 40 41 42 43
000
FTUS42 KFFC 231934 AAA
TAFAHN
TAF AMD
KAHN 231934Z 2320/2418 30015G25KT P6SM SCT025 BKN035
      TEMPO 2403/2405 SCT035
     FM240500 29013G19KT P6SM SCT035
     FM240800 28010KT P6SM SKC
     FM241200 27010KT P6SM SKC=

USA.gov is the U.S. government's official web portal to all federal, state and local government web resources and services.